KMSO/MSO METAR and TAF weather

Enter ICAO airport designator
Station Type Date Time Source
KMSO METAR 2020/07/14 16:53 UTC NOAA

KMSO 141653Z VRB03KT 10SM CLR 18/04 A3014 RMK AO2 SLP197 T01780039


Station Type Date Time Source
KMSO Decoded METAR 2020/07/14 16:53 UTC NOAA

MISSOULA INTERNATIONAL AIRPORT , MT, United States (KMSO) 46-55N 114-06W 975M
Jul 14, 2020 - 12:53 PM EDT / 2020.07.14 1653 UTC
Wind: Variable at 3 MPH (3 KT):0
Visibility: 10 mile(s):0
Sky conditions: clear
Temperature: 64.0 F (17.8 C)
Dew Point: 39.0 F (3.9 C)
Relative Humidity: 39%
Pressure (altimeter): 30.14 in. Hg (1020 hPa)
ob: KMSO 141653Z VRB03KT 10SM CLR 18/04 A3014 RMK AO2 SLP197 T01780039
cycle: 17

Station Type Date Time Source
KMSO TAF 2020/07/14 12:22 UTC NOAA

TAF KMSO 141120Z 1412/1512 00000KT P6SM SKC
FM142000 31011G20KT P6SM SKC
FM150300 31006KT P6SM SKC

Example: see airport list